sensor_id;sensor_type;location;lat;lon;timestamp;P1;durP1;ratioP1;P2;durP2;ratioP2
3274;SDS011;1649;53.672;10.064;2023-09-19T00:00:33;5.43;;;1.97;;
3274;SDS011;1649;53.672;10.064;2023-09-19T00:03:00;7.97;;;1.80;;
3274;SDS011;1649;53.672;10.064;2023-09-19T00:05:27;6.33;;;2.23;;
3274;SDS011;1649;53.672;10.064;2023-09-19T00:07:54;5.07;;;2.00;;
3274;SDS011;1649;53.672;10.064;2023-09-19T00:10:23;8.73;;;1.90;;
3274;SDS011;1649;53.672;10.064;2023-09-19T00:12:55;6.33;;;2.20;;
3274;SDS011;1649;53.672;10.064;2023-09-19T00:15:21;7.33;;;2.37;;
3274;SDS011;1649;53.672;10.064;2023-09-19T00:17:47;4.90;;;2.07;;
3274;SDS011;1649;53.672;10.064;2023-09-19T00:20:13;5.10;;;2.07;;
3274;SDS011;1649;53.672;10.064;2023-09-19T00:22:43;6.30;;;3.07;;
3274;SDS011;1649;53.672;10.064;2023-09-19T00:25:09;8.80;;;2.33;;
3274;SDS011;1649;53.672;10.064;2023-09-19T00:27:36;8.83;;;2.37;;
3274;SDS011;1649;53.672;10.064;2023-09-19T00:30:06;4.50;;;2.47;;
3274;SDS011;1649;53.672;10.064;2023-09-19T00:32:39;5.13;;;2.40;;
3274;SDS011;1649;53.672;10.064;2023-09-19T00:35:05;6.23;;;2.67;;
3274;SDS011;1649;53.672;10.064;2023-09-19T00:37:32;5.33;;;2.40;;
3274;SDS011;1649;53.672;10.064;2023-09-19T00:39:58;8.87;;;3.03;;
3274;SDS011;1649;53.672;10.064;2023-09-19T00:42:23;6.87;;;2.63;;
3274;SDS011;1649;53.672;10.064;2023-09-19T00:44:50;6.70;;;2.80;;
3274;SDS011;1649;53.672;10.064;2023-09-19T00:47:17;5.10;;;2.60;;
3274;SDS011;1649;53.672;10.064;2023-09-19T00:49:44;6.13;;;3.00;;
3274;SDS011;1649;53.672;10.064;2023-09-19T00:52:17;6.83;;;2.80;;
3274;SDS011;1649;53.672;10.064;2023-09-19T00:54:46;8.10;;;3.27;;
3274;SDS011;1649;53.672;10.064;2023-09-19T00:57:12;7.13;;;3.33;;
3274;SDS011;1649;53.672;10.064;2023-09-19T00:59:40;18.23;;;3.63;;
3274;SDS011;1649;53.672;10.064;2023-09-19T01:02:07;7.33;;;3.20;;
3274;SDS011;1649;53.672;10.064;2023-09-19T01:04:33;6.23;;;3.50;;
3274;SDS011;1649;53.672;10.064;2023-09-19T01:06:59;9.43;;;4.40;;
3274;SDS011;1649;53.672;10.064;2023-09-19T01:09:24;6.00;;;3.67;;
3274;SDS011;1649;53.672;10.064;2023-09-19T01:11:51;9.97;;;3.70;;
3274;SDS011;1649;53.672;10.064;2023-09-19T01:14:29;7.13;;;3.73;;
3274;SDS011;1649;53.672;10.064;2023-09-19T01:17:36;9.33;;;3.70;;
3274;SDS011;1649;53.672;10.064;2023-09-19T01:20:05;8.37;;;3.73;;
3274;SDS011;1649;53.672;10.064;2023-09-19T01:26:28;6.67;;;3.53;;
3274;SDS011;1649;53.672;10.064;2023-09-19T01:31:56;7.17;;;3.83;;
3274;SDS011;1649;53.672;10.064;2023-09-19T01:34:27;8.23;;;3.73;;
3274;SDS011;1649;53.672;10.064;2023-09-19T01:40:43;5.97;;;3.53;;
3274;SDS011;1649;53.672;10.064;2023-09-19T01:43:16;7.00;;;4.03;;
3274;SDS011;1649;53.672;10.064;2023-09-19T01:48:54;7.10;;;4.30;;
3274;SDS011;1649;53.672;10.064;2023-09-19T01:54:33;8.53;;;3.83;;
3274;SDS011;1649;53.672;10.064;2023-09-19T01:57:07;8.17;;;4.03;;
3274;SDS011;1649;53.672;10.064;2023-09-19T01:59:42;9.53;;;4.33;;
3274;SDS011;1649;53.672;10.064;2023-09-19T02:02:31;7.13;;;3.90;;
3274;SDS011;1649;53.672;10.064;2023-09-19T02:05:00;8.73;;;3.60;;
3274;SDS011;1649;53.672;10.064;2023-09-19T02:07:26;6.30;;;3.30;;
3274;SDS011;1649;53.672;10.064;2023-09-19T02:09:52;7.00;;;3.10;;
3274;SDS011;1649;53.672;10.064;2023-09-19T02:12:17;7.00;;;3.27;;
3274;SDS011;1649;53.672;10.064;2023-09-19T02:14:43;6.40;;;3.00;;
3274;SDS011;1649;53.672;10.064;2023-09-19T02:17:08;4.73;;;2.63;;
3274;SDS011;1649;53.672;10.064;2023-09-19T02:19:36;7.33;;;2.73;;
3274;SDS011;1649;53.672;10.064;2023-09-19T02:22:03;4.87;;;2.27;;
3274;SDS011;1649;53.672;10.064;2023-09-19T02:24:34;6.37;;;2.23;;
3274;SDS011;1649;53.672;10.064;2023-09-19T02:27:00;5.03;;;2.37;;
3274;SDS011;1649;53.672;10.064;2023-09-19T02:29:29;6.37;;;2.20;;
3274;SDS011;1649;53.672;10.064;2023-09-19T02:31:54;6.40;;;2.53;;
3274;SDS011;1649;53.672;10.064;2023-09-19T02:34:21;6.23;;;2.20;;
3274;SDS011;1649;53.672;10.064;2023-09-19T02:36:46;8.80;;;2.60;;
3274;SDS011;1649;53.672;10.064;2023-09-19T02:39:12;10.70;;;3.70;;
3274;SDS011;1649;53.672;10.064;2023-09-19T02:41:38;6.73;;;3.23;;
3274;SDS011;1649;53.672;10.064;2023-09-19T02:44:03;8.30;;;3.20;;
3274;SDS011;1649;53.672;10.064;2023-09-19T02:46:32;7.17;;;3.40;;
3274;SDS011;1649;53.672;10.064;2023-09-19T02:49:01;7.60;;;4.33;;
3274;SDS011;1649;53.672;10.064;2023-09-19T02:51:30;6.47;;;3.73;;
3274;SDS011;1649;53.672;10.064;2023-09-19T02:53:55;7.20;;;4.10;;
3274;SDS011;1649;53.672;10.064;2023-09-19T02:56:21;9.87;;;4.73;;
3274;SDS011;1649;53.672;10.064;2023-09-19T02:58:47;7.17;;;3.87;;
3274;SDS011;1649;53.672;10.064;2023-09-19T03:01:13;8.73;;;3.93;;
3274;SDS011;1649;53.672;10.064;2023-09-19T03:03:39;8.57;;;3.70;;
3274;SDS011;1649;53.672;10.064;2023-09-19T03:06:06;7.20;;;4.07;;
3274;SDS011;1649;53.672;10.064;2023-09-19T03:08:33;6.47;;;3.63;;
3274;SDS011;1649;53.672;10.064;2023-09-19T03:11:01;8.80;;;3.90;;
3274;SDS011;1649;53.672;10.064;2023-09-19T03:13:30;7.40;;;3.60;;
3274;SDS011;1649;53.672;10.064;2023-09-19T03:15:58;6.40;;;3.40;;
3274;SDS011;1649;53.672;10.064;2023-09-19T03:18:24;6.83;;;2.83;;
3274;SDS011;1649;53.672;10.064;2023-09-19T03:20:54;11.17;;;3.60;;
3274;SDS011;1649;53.672;10.064;2023-09-19T03:23:20;9.13;;;2.83;;
3274;SDS011;1649;53.672;10.064;2023-09-19T03:25:46;6.43;;;2.90;;
3274;SDS011;1649;53.672;10.064;2023-09-19T03:28:12;6.20;;;2.70;;
3274;SDS011;1649;53.672;10.064;2023-09-19T03:30:38;6.73;;;2.80;;
3274;SDS011;1649;53.672;10.064;2023-09-19T03:33:03;5.67;;;2.40;;
3274;SDS011;1649;53.672;10.064;2023-09-19T03:35:29;7.30;;;2.93;;
3274;SDS011;1649;53.672;10.064;2023-09-19T03:37:55;11.57;;;3.20;;
3274;SDS011;1649;53.672;10.064;2023-09-19T03:40:21;7.67;;;2.57;;
3274;SDS011;1649;53.672;10.064;2023-09-19T03:42:48;5.40;;;1.97;;
3274;SDS011;1649;53.672;10.064;2023-09-19T03:45:13;9.63;;;2.50;;
3274;SDS011;1649;53.672;10.064;2023-09-19T03:47:41;8.87;;;2.63;;
3274;SDS011;1649;53.672;10.064;2023-09-19T03:50:07;6.40;;;2.50;;
3274;SDS011;1649;53.672;10.064;2023-09-19T03:52:36;7.10;;;2.40;;
3274;SDS011;1649;53.672;10.064;2023-09-19T03:55:01;11.60;;;2.53;;
3274;SDS011;1649;53.672;10.064;2023-09-19T03:57:30;6.20;;;2.63;;
3274;SDS011;1649;53.672;10.064;2023-09-19T03:59:56;5.27;;;2.00;;
3274;SDS011;1649;53.672;10.064;2023-09-19T04:02:22;7.43;;;2.83;;
3274;SDS011;1649;53.672;10.064;2023-09-19T04:04:48;7.20;;;2.40;;
3274;SDS011;1649;53.672;10.064;2023-09-19T04:07:14;8.50;;;3.10;;
3274;SDS011;1649;53.672;10.064;2023-09-19T04:09:40;9.40;;;2.87;;
3274;SDS011;1649;53.672;10.064;2023-09-19T04:12:05;5.90;;;2.53;;
3274;SDS011;1649;53.672;10.064;2023-09-19T04:14:33;7.70;;;2.57;;
3274;SDS011;1649;53.672;10.064;2023-09-19T04:16:59;5.50;;;2.60;;
3274;SDS011;1649;53.672;10.064;2023-09-19T04:19:25;6.40;;;2.20;;
3274;SDS011;1649;53.672;10.064;2023-09-19T04:21:51;6.43;;;2.27;;
3274;SDS011;1649;53.672;10.064;2023-09-19T04:24:16;4.03;;;1.90;;
3274;SDS011;1649;53.672;10.064;2023-09-19T04:26:44;9.37;;;2.87;;
3274;SDS011;1649;53.672;10.064;2023-09-19T04:29:10;6.80;;;2.57;;
3274;SDS011;1649;53.672;10.064;2023-09-19T04:31:38;6.70;;;2.53;;
3274;SDS011;1649;53.672;10.064;2023-09-19T04:34:05;7.33;;;2.30;;
3274;SDS011;1649;53.672;10.064;2023-09-19T04:36:32;10.10;;;2.50;;
3274;SDS011;1649;53.672;10.064;2023-09-19T04:38:58;10.23;;;2.53;;
3274;SDS011;1649;53.672;10.064;2023-09-19T04:41:23;7.47;;;2.03;;
3274;SDS011;1649;53.672;10.064;2023-09-19T04:43:49;8.93;;;2.90;;
3274;SDS011;1649;53.672;10.064;2023-09-19T04:46:15;9.67;;;3.37;;
3274;SDS011;1649;53.672;10.064;2023-09-19T04:48:42;6.73;;;2.40;;
3274;SDS011;1649;53.672;10.064;2023-09-19T04:51:08;6.00;;;1.93;;
3274;SDS011;1649;53.672;10.064;2023-09-19T04:53:33;7.37;;;2.43;;
3274;SDS011;1649;53.672;10.064;2023-09-19T04:55:59;6.50;;;2.23;;
3274;SDS011;1649;53.672;10.064;2023-09-19T04:58:24;9.57;;;2.37;;
3274;SDS011;1649;53.672;10.064;2023-09-19T05:00:50;8.77;;;2.83;;
3274;SDS011;1649;53.672;10.064;2023-09-19T05:03:16;8.00;;;1.93;;
3274;SDS011;1649;53.672;10.064;2023-09-19T05:05:42;7.57;;;2.47;;
3274;SDS011;1649;53.672;10.064;2023-09-19T05:08:08;8.33;;;2.67;;
3274;SDS011;1649;53.672;10.064;2023-09-19T05:10:34;7.40;;;2.10;;
3274;SDS011;1649;53.672;10.064;2023-09-19T05:13:03;6.70;;;2.23;;
3274;SDS011;1649;53.672;10.064;2023-09-19T05:15:29;6.73;;;1.83;;
3274;SDS011;1649;53.672;10.064;2023-09-19T05:17:56;7.20;;;2.20;;
3274;SDS011;1649;53.672;10.064;2023-09-19T05:20:21;7.07;;;2.47;;
3274;SDS011;1649;53.672;10.064;2023-09-19T05:23:04;7.20;;;2.30;;
3274;SDS011;1649;53.672;10.064;2023-09-19T05:25:34;5.60;;;1.93;;
3274;SDS011;1649;53.672;10.064;2023-09-19T05:28:03;10.10;;;2.17;;
3274;SDS011;1649;53.672;10.064;2023-09-19T05:30:34;7.43;;;2.60;;
3274;SDS011;1649;53.672;10.064;2023-09-19T05:33:04;10.60;;;2.20;;
3274;SDS011;1649;53.672;10.064;2023-09-19T05:35:30;5.80;;;1.90;;
3274;SDS011;1649;53.672;10.064;2023-09-19T05:37:56;6.43;;;2.20;;
3274;SDS011;1649;53.672;10.064;2023-09-19T05:40:23;12.00;;;1.87;;
3274;SDS011;1649;53.672;10.064;2023-09-19T05:42:49;5.90;;;2.17;;
3274;SDS011;1649;53.672;10.064;2023-09-19T05:45:15;5.90;;;2.40;;
3274;SDS011;1649;53.672;10.064;2023-09-19T05:47:50;7.60;;;2.20;;
3274;SDS011;1649;53.672;10.064;2023-09-19T05:50:20;7.23;;;1.70;;
3274;SDS011;1649;53.672;10.064;2023-09-19T05:52:52;7.63;;;1.80;;
3274;SDS011;1649;53.672;10.064;2023-09-19T05:55:19;7.50;;;2.47;;
3274;SDS011;1649;53.672;10.064;2023-09-19T05:57:49;7.90;;;2.50;;
3274;SDS011;1649;53.672;10.064;2023-09-19T06:00:16;8.70;;;2.03;;
3274;SDS011;1649;53.672;10.064;2023-09-19T06:02:44;8.10;;;1.90;;
3274;SDS011;1649;53.672;10.064;2023-09-19T06:05:09;8.30;;;2.40;;
3274;SDS011;1649;53.672;10.064;2023-09-19T06:07:36;5.60;;;2.30;;
3274;SDS011;1649;53.672;10.064;2023-09-19T06:10:03;5.27;;;2.33;;
3274;SDS011;1649;53.672;10.064;2023-09-19T06:12:31;5.17;;;1.97;;
3274;SDS011;1649;53.672;10.064;2023-09-19T06:14:58;5.60;;;1.97;;
3274;SDS011;1649;53.672;10.064;2023-09-19T06:17:24;10.07;;;2.30;;
3274;SDS011;1649;53.672;10.064;2023-09-19T06:19:52;5.40;;;1.63;;
3274;SDS011;1649;53.672;10.064;2023-09-19T06:22:18;7.50;;;1.87;;
3274;SDS011;1649;53.672;10.064;2023-09-19T06:24:43;9.23;;;2.23;;
3274;SDS011;1649;53.672;10.064;2023-09-19T06:27:09;8.50;;;2.37;;
3274;SDS011;1649;53.672;10.064;2023-09-19T06:29:35;7.73;;;2.33;;
3274;SDS011;1649;53.672;10.064;2023-09-19T06:32:02;4.90;;;1.93;;
3274;SDS011;1649;53.672;10.064;2023-09-19T06:34:32;8.33;;;2.53;;
3274;SDS011;1649;53.672;10.064;2023-09-19T06:36:58;6.20;;;1.80;;
3274;SDS011;1649;53.672;10.064;2023-09-19T06:39:23;6.73;;;2.30;;
3274;SDS011;1649;53.672;10.064;2023-09-19T06:41:50;9.13;;;2.23;;
3274;SDS011;1649;53.672;10.064;2023-09-19T06:44:18;5.60;;;2.30;;
3274;SDS011;1649;53.672;10.064;2023-09-19T06:46:46;12.83;;;2.30;;
3274;SDS011;1649;53.672;10.064;2023-09-19T06:49:15;5.43;;;2.00;;
3274;SDS011;1649;53.672;10.064;2023-09-19T06:51:40;5.63;;;2.03;;
3274;SDS011;1649;53.672;10.064;2023-09-19T06:54:06;8.63;;;2.60;;
3274;SDS011;1649;53.672;10.064;2023-09-19T06:56:32;12.33;;;2.27;;
3274;SDS011;1649;53.672;10.064;2023-09-19T06:58:58;10.10;;;2.20;;
3274;SDS011;1649;53.672;10.064;2023-09-19T07:01:23;5.90;;;2.20;;
3274;SDS011;1649;53.672;10.064;2023-09-19T07:03:50;9.57;;;2.57;;
3274;SDS011;1649;53.672;10.064;2023-09-19T07:06:15;8.03;;;2.43;;
3274;SDS011;1649;53.672;10.064;2023-09-19T07:08:41;7.80;;;2.40;;
3274;SDS011;1649;53.672;10.064;2023-09-19T07:11:07;6.87;;;2.63;;
3274;SDS011;1649;53.672;10.064;2023-09-19T07:13:32;7.27;;;2.17;;
3274;SDS011;1649;53.672;10.064;2023-09-19T07:15:58;7.43;;;2.33;;
3274;SDS011;1649;53.672;10.064;2023-09-19T07:18:24;7.20;;;2.13;;
3274;SDS011;1649;53.672;10.064;2023-09-19T07:20:50;9.17;;;2.40;;
3274;SDS011;1649;53.672;10.064;2023-09-19T07:23:16;6.70;;;2.10;;
3274;SDS011;1649;53.672;10.064;2023-09-19T07:25:43;8.80;;;2.33;;
3274;SDS011;1649;53.672;10.064;2023-09-19T07:28:08;7.50;;;2.90;;
3274;SDS011;1649;53.672;10.064;2023-09-19T07:30:35;9.40;;;2.50;;
3274;SDS011;1649;53.672;10.064;2023-09-19T07:33:02;11.60;;;3.40;;
3274;SDS011;1649;53.672;10.064;2023-09-19T07:35:30;10.60;;;2.67;;
3274;SDS011;1649;53.672;10.064;2023-09-19T07:37:56;10.40;;;2.23;;
3274;SDS011;1649;53.672;10.064;2023-09-19T07:40:23;6.77;;;2.13;;
3274;SDS011;1649;53.672;10.064;2023-09-19T07:42:51;10.00;;;2.47;;
3274;SDS011;1649;53.672;10.064;2023-09-19T07:45:18;7.33;;;2.10;;
3274;SDS011;1649;53.672;10.064;2023-09-19T07:47:44;10.00;;;2.33;;
3274;SDS011;1649;53.672;10.064;2023-09-19T07:50:10;11.43;;;2.77;;
3274;SDS011;1649;53.672;10.064;2023-09-19T07:52:36;5.93;;;2.23;;
3274;SDS011;1649;53.672;10.064;2023-09-19T07:55:04;7.80;;;2.93;;
3274;SDS011;1649;53.672;10.064;2023-09-19T07:57:33;9.80;;;2.70;;
3274;SDS011;1649;53.672;10.064;2023-09-19T08:00:02;11.50;;;3.03;;
3274;SDS011;1649;53.672;10.064;2023-09-19T08:02:35;8.50;;;2.93;;
3274;SDS011;1649;53.672;10.064;2023-09-19T08:05:03;7.70;;;2.37;;
3274;SDS011;1649;53.672;10.064;2023-09-19T08:07:31;6.43;;;2.30;;
3274;SDS011;1649;53.672;10.064;2023-09-19T08:09:57;9.13;;;2.40;;
3274;SDS011;1649;53.672;10.064;2023-09-19T08:12:23;5.63;;;1.90;;
3274;SDS011;1649;53.672;10.064;2023-09-19T08:14:50;10.90;;;2.63;;
3274;SDS011;1649;53.672;10.064;2023-09-19T08:17:15;8.37;;;2.70;;
3274;SDS011;1649;53.672;10.064;2023-09-19T08:19:41;9.90;;;2.70;;
3274;SDS011;1649;53.672;10.064;2023-09-19T08:22:09;10.70;;;2.77;;
3274;SDS011;1649;53.672;10.064;2023-09-19T08:24:35;6.63;;;2.27;;
3274;SDS011;1649;53.672;10.064;2023-09-19T08:27:01;6.30;;;2.30;;
3274;SDS011;1649;53.672;10.064;2023-09-19T08:29:29;8.60;;;2.30;;
3274;SDS011;1649;53.672;10.064;2023-09-19T08:31:56;9.97;;;3.27;;
3274;SDS011;1649;53.672;10.064;2023-09-19T08:34:22;13.23;;;3.83;;
3274;SDS011;1649;53.672;10.064;2023-09-19T08:36:52;8.50;;;3.57;;
3274;SDS011;1649;53.672;10.064;2023-09-19T08:39:25;6.53;;;2.83;;
3274;SDS011;1649;53.672;10.064;2023-09-19T08:41:57;11.60;;;3.30;;
3274;SDS011;1649;53.672;10.064;2023-09-19T08:44:24;8.23;;;3.20;;
3274;SDS011;1649;53.672;10.064;2023-09-19T08:46:49;10.50;;;3.30;;
3274;SDS011;1649;53.672;10.064;2023-09-19T08:52:28;10.83;;;3.30;;
3274;SDS011;1649;53.672;10.064;2023-09-19T08:55:19;8.10;;;2.63;;
3274;SDS011;1649;53.672;10.064;2023-09-19T08:57:49;7.70;;;2.63;;
3274;SDS011;1649;53.672;10.064;2023-09-19T09:00:16;6.43;;;2.67;;
3274;SDS011;1649;53.672;10.064;2023-09-19T09:02:47;9.90;;;3.23;;
3274;SDS011;1649;53.672;10.064;2023-09-19T09:05:14;10.57;;;3.57;;
3274;SDS011;1649;53.672;10.064;2023-09-19T09:07:47;10.30;;;2.83;;
3274;SDS011;1649;53.672;10.064;2023-09-19T09:10:16;8.87;;;2.73;;
3274;SDS011;1649;53.672;10.064;2023-09-19T09:12:43;14.57;;;3.70;;
3274;SDS011;1649;53.672;10.064;2023-09-19T09:15:09;10.50;;;2.93;;
3274;SDS011;1649;53.672;10.064;2023-09-19T09:17:36;11.60;;;3.13;;
3274;SDS011;1649;53.672;10.064;2023-09-19T09:20:02;10.93;;;2.93;;
3274;SDS011;1649;53.672;10.064;2023-09-19T09:22:33;9.47;;;2.90;;
3274;SDS011;1649;53.672;10.064;2023-09-19T09:24:58;11.87;;;2.87;;
3274;SDS011;1649;53.672;10.064;2023-09-19T09:27:26;11.40;;;2.80;;
3274;SDS011;1649;53.672;10.064;2023-09-19T09:29:52;6.30;;;2.70;;
3274;SDS011;1649;53.672;10.064;2023-09-19T09:32:24;12.67;;;2.83;;
3274;SDS011;1649;53.672;10.064;2023-09-19T09:34:55;12.03;;;2.63;;
3274;SDS011;1649;53.672;10.064;2023-09-19T09:37:22;11.90;;;2.87;;
3274;SDS011;1649;53.672;10.064;2023-09-19T09:39:53;8.37;;;2.13;;
3274;SDS011;1649;53.672;10.064;2023-09-19T09:42:41;13.63;;;2.53;;
3274;SDS011;1649;53.672;10.064;2023-09-19T09:47:57;7.90;;;2.33;;
3274;SDS011;1649;53.672;10.064;2023-09-19T09:50:24;9.77;;;2.30;;
3274;SDS011;1649;53.672;10.064;2023-09-19T09:53:25;7.20;;;2.60;;
3274;SDS011;1649;53.672;10.064;2023-09-19T09:56:03;7.17;;;2.20;;
3274;SDS011;1649;53.672;10.064;2023-09-19T09:58:33;15.50;;;2.30;;
3274;SDS011;1649;53.672;10.064;2023-09-19T10:01:02;9.70;;;1.93;;
3274;SDS011;1649;53.672;10.064;2023-09-19T10:03:40;6.20;;;2.10;;
3274;SDS011;1649;53.672;10.064;2023-09-19T10:06:12;10.33;;;1.97;;
3274;SDS011;1649;53.672;10.064;2023-09-19T10:09:05;7.23;;;2.20;;
3274;SDS011;1649;53.672;10.064;2023-09-19T10:11:57;9.73;;;2.27;;
3274;SDS011;1649;53.672;10.064;2023-09-19T10:14:31;7.97;;;2.10;;
3274;SDS011;1649;53.672;10.064;2023-09-19T10:17:03;10.03;;;2.20;;
3274;SDS011;1649;53.672;10.064;2023-09-19T10:19:37;11.60;;;2.17;;
3274;SDS011;1649;53.672;10.064;2023-09-19T10:22:22;7.30;;;2.37;;
3274;SDS011;1649;53.672;10.064;2023-09-19T10:24:49;6.30;;;1.97;;
3274;SDS011;1649;53.672;10.064;2023-09-19T10:27:19;10.50;;;2.00;;
3274;SDS011;1649;53.672;10.064;2023-09-19T10:29:45;5.93;;;2.07;;
3274;SDS011;1649;53.672;10.064;2023-09-19T10:32:19;7.97;;;1.80;;
3274;SDS011;1649;53.672;10.064;2023-09-19T10:34:49;6.13;;;1.80;;
3274;SDS011;1649;53.672;10.064;2023-09-19T10:37:16;9.70;;;2.50;;
3274;SDS011;1649;53.672;10.064;2023-09-19T10:39:46;8.93;;;2.00;;
3274;SDS011;1649;53.672;10.064;2023-09-19T10:42:13;7.33;;;2.57;;
3274;SDS011;1649;53.672;10.064;2023-09-19T10:44:43;11.77;;;2.17;;
3274;SDS011;1649;53.672;10.064;2023-09-19T10:47:10;6.87;;;2.07;;
3274;SDS011;1649;53.672;10.064;2023-09-19T10:49:43;7.57;;;2.20;;
3274;SDS011;1649;53.672;10.064;2023-09-19T10:52:15;7.80;;;2.30;;
3274;SDS011;1649;53.672;10.064;2023-09-19T10:54:46;5.87;;;2.40;;
3274;SDS011;1649;53.672;10.064;2023-09-19T10:57:20;7.83;;;2.73;;
3274;SDS011;1649;53.672;10.064;2023-09-19T11:00:01;5.70;;;2.63;;
3274;SDS011;1649;53.672;10.064;2023-09-19T11:05:41;14.50;;;2.10;;
3274;SDS011;1649;53.672;10.064;2023-09-19T11:08:08;7.47;;;2.40;;
3274;SDS011;1649;53.672;10.064;2023-09-19T11:10:44;6.50;;;2.57;;
3274;SDS011;1649;53.672;10.064;2023-09-19T11:13:23;9.17;;;2.80;;
3274;SDS011;1649;53.672;10.064;2023-09-19T11:24:31;6.40;;;2.20;;
3274;SDS011;1649;53.672;10.064;2023-09-19T11:26:56;5.30;;;2.03;;
3274;SDS011;1649;53.672;10.064;2023-09-19T11:29:35;7.30;;;2.93;;
3274;SDS011;1649;53.672;10.064;2023-09-19T11:32:02;12.23;;;2.50;;
3274;SDS011;1649;53.672;10.064;2023-09-19T11:34:38;5.67;;;2.00;;
3274;SDS011;1649;53.672;10.064;2023-09-19T11:39:38;8.97;;;2.30;;
3274;SDS011;1649;53.672;10.064;2023-09-19T11:46:10;8.77;;;1.80;;
3274;SDS011;1649;53.672;10.064;2023-09-19T11:48:22;7.27;;;3.00;;
3274;SDS011;1649;53.672;10.064;2023-09-19T11:50:50;12.43;;;2.90;;
3274;SDS011;1649;53.672;10.064;2023-09-19T11:53:16;12.13;;;2.47;;
3274;SDS011;1649;53.672;10.064;2023-09-19T11:55:42;6.30;;;2.13;;
3274;SDS011;1649;53.672;10.064;2023-09-19T11:58:09;7.30;;;2.10;;
3274;SDS011;1649;53.672;10.064;2023-09-19T12:00:37;6.63;;;2.07;;
3274;SDS011;1649;53.672;10.064;2023-09-19T12:03:09;8.80;;;1.77;;
3274;SDS011;1649;53.672;10.064;2023-09-19T12:05:43;11.10;;;2.20;;
3274;SDS011;1649;53.672;10.064;2023-09-19T12:08:09;7.30;;;2.27;;
3274;SDS011;1649;53.672;10.064;2023-09-19T12:10:56;6.77;;;1.70;;
3274;SDS011;1649;53.672;10.064;2023-09-19T12:13:20;7.00;;;2.13;;
3274;SDS011;1649;53.672;10.064;2023-09-19T12:15:46;6.80;;;1.80;;
3274;SDS011;1649;53.672;10.064;2023-09-19T12:18:27;7.97;;;1.93;;
3274;SDS011;1649;53.672;10.064;2023-09-19T12:21:00;7.70;;;1.83;;
3274;SDS011;1649;53.672;10.064;2023-09-19T12:23:29;7.50;;;1.90;;
3274;SDS011;1649;53.672;10.064;2023-09-19T12:25:55;8.57;;;2.17;;
3274;SDS011;1649;53.672;10.064;2023-09-19T12:28:22;9.00;;;2.40;;
3274;SDS011;1649;53.672;10.064;2023-09-19T12:30:51;6.80;;;2.30;;
3274;SDS011;1649;53.672;10.064;2023-09-19T12:33:20;11.43;;;2.37;;
3274;SDS011;1649;53.672;10.064;2023-09-19T12:35:49;8.93;;;2.10;;
3274;SDS011;1649;53.672;10.064;2023-09-19T12:38:25;6.97;;;2.27;;
3274;SDS011;1649;53.672;10.064;2023-09-19T12:40:53;9.70;;;3.00;;
3274;SDS011;1649;53.672;10.064;2023-09-19T12:43:23;9.40;;;2.30;;
3274;SDS011;1649;53.672;10.064;2023-09-19T12:45:50;12.00;;;2.80;;
3274;SDS011;1649;53.672;10.064;2023-09-19T12:48:18;7.97;;;1.93;;
3274;SDS011;1649;53.672;10.064;2023-09-19T12:51:02;6.50;;;2.07;;
3274;SDS011;1649;53.672;10.064;2023-09-19T12:53:37;11.43;;;2.33;;
3274;SDS011;1649;53.672;10.064;2023-09-19T12:56:17;6.13;;;2.10;;
3274;SDS011;1649;53.672;10.064;2023-09-19T12:58:53;6.17;;;2.20;;
3274;SDS011;1649;53.672;10.064;2023-09-19T13:01:20;7.03;;;2.10;;
3274;SDS011;1649;53.672;10.064;2023-09-19T13:04:33;6.43;;;2.80;;
3274;SDS011;1649;53.672;10.064;2023-09-19T13:06:58;9.17;;;2.23;;
3274;SDS011;1649;53.672;10.064;2023-09-19T13:09:25;10.00;;;2.47;;
3274;SDS011;1649;53.672;10.064;2023-09-19T13:12:03;11.00;;;3.23;;
3274;SDS011;1649;53.672;10.064;2023-09-19T13:14:30;7.63;;;2.80;;
3274;SDS011;1649;53.672;10.064;2023-09-19T13:19:46;7.33;;;2.20;;
3274;SDS011;1649;53.672;10.064;2023-09-19T13:25:08;6.70;;;2.33;;
3274;SDS011;1649;53.672;10.064;2023-09-19T13:27:45;9.97;;;2.50;;
3274;SDS011;1649;53.672;10.064;2023-09-19T13:30:17;7.53;;;2.60;;
3274;SDS011;1649;53.672;10.064;2023-09-19T13:32:43;9.33;;;2.13;;
3274;SDS011;1649;53.672;10.064;2023-09-19T13:35:10;6.60;;;1.97;;
3274;SDS011;1649;53.672;10.064;2023-09-19T13:37:38;9.00;;;2.27;;
3274;SDS011;1649;53.672;10.064;2023-09-19T13:40:09;7.40;;;2.37;;
3274;SDS011;1649;53.672;10.064;2023-09-19T13:42:36;4.90;;;2.10;;
3274;SDS011;1649;53.672;10.064;2023-09-19T13:45:02;7.50;;;2.03;;
3274;SDS011;1649;53.672;10.064;2023-09-19T13:47:29;9.50;;;2.33;;
3274;SDS011;1649;53.672;10.064;2023-09-19T13:49:59;5.60;;;1.77;;
3274;SDS011;1649;53.672;10.064;2023-09-19T13:52:25;10.00;;;2.60;;
3274;SDS011;1649;53.672;10.064;2023-09-19T13:54:53;10.73;;;2.20;;
3274;SDS011;1649;53.672;10.064;2023-09-19T13:57:21;7.30;;;2.50;;
3274;SDS011;1649;53.672;10.064;2023-09-19T13:59:47;11.00;;;2.07;;
3274;SDS011;1649;53.672;10.064;2023-09-19T14:02:13;8.17;;;1.93;;
3274;SDS011;1649;53.672;10.064;2023-09-19T14:04:39;14.93;;;2.33;;
3274;SDS011;1649;53.672;10.064;2023-09-19T14:07:05;4.73;;;2.03;;
3274;SDS011;1649;53.672;10.064;2023-09-19T14:09:32;6.67;;;2.00;;
3274;SDS011;1649;53.672;10.064;2023-09-19T14:11:58;9.23;;;2.40;;
3274;SDS011;1649;53.672;10.064;2023-09-19T14:14:24;7.17;;;2.20;;
3274;SDS011;1649;53.672;10.064;2023-09-19T14:16:50;6.53;;;1.97;;
3274;SDS011;1649;53.672;10.064;2023-09-19T14:19:17;9.13;;;2.50;;
3274;SDS011;1649;53.672;10.064;2023-09-19T14:21:42;8.33;;;1.97;;
3274;SDS011;1649;53.672;10.064;2023-09-19T14:24:08;10.60;;;2.60;;
3274;SDS011;1649;53.672;10.064;2023-09-19T14:26:34;7.07;;;2.20;;
3274;SDS011;1649;53.672;10.064;2023-09-19T14:29:03;13.70;;;3.03;;
3274;SDS011;1649;53.672;10.064;2023-09-19T14:31:28;6.03;;;2.30;;
3274;SDS011;1649;53.672;10.064;2023-09-19T14:33:54;8.27;;;2.20;;
3274;SDS011;1649;53.672;10.064;2023-09-19T14:36:21;7.60;;;2.10;;
3274;SDS011;1649;53.672;10.064;2023-09-19T14:38:47;7.83;;;1.93;;
3274;SDS011;1649;53.672;10.064;2023-09-19T14:41:18;9.50;;;2.30;;
3274;SDS011;1649;53.672;10.064;2023-09-19T14:43:44;7.90;;;2.13;;
3274;SDS011;1649;53.672;10.064;2023-09-19T14:46:09;14.00;;;2.33;;
3274;SDS011;1649;53.672;10.064;2023-09-19T14:48:35;5.53;;;1.80;;
3274;SDS011;1649;53.672;10.064;2023-09-19T14:51:04;8.77;;;2.27;;
3274;SDS011;1649;53.672;10.064;2023-09-19T14:53:32;7.30;;;2.20;;
3274;SDS011;1649;53.672;10.064;2023-09-19T14:56:00;8.83;;;1.80;;
3274;SDS011;1649;53.672;10.064;2023-09-19T14:58:29;5.30;;;1.90;;
3274;SDS011;1649;53.672;10.064;2023-09-19T15:01:02;7.57;;;2.47;;
3274;SDS011;1649;53.672;10.064;2023-09-19T15:03:34;6.27;;;2.10;;
3274;SDS011;1649;53.672;10.064;2023-09-19T15:06:04;7.23;;;2.10;;
3274;SDS011;1649;53.672;10.064;2023-09-19T15:08:35;11.23;;;2.40;;
3274;SDS011;1649;53.672;10.064;2023-09-19T15:11:09;6.50;;;2.20;;
3274;SDS011;1649;53.672;10.064;2023-09-19T15:13:35;7.13;;;2.50;;
3274;SDS011;1649;53.672;10.064;2023-09-19T15:16:02;7.37;;;2.33;;
3274;SDS011;1649;53.672;10.064;2023-09-19T15:18:34;7.63;;;2.20;;
3274;SDS011;1649;53.672;10.064;2023-09-19T15:21:05;6.30;;;1.93;;
3274;SDS011;1649;53.672;10.064;2023-09-19T15:23:35;8.83;;;2.70;;
3274;SDS011;1649;53.672;10.064;2023-09-19T15:26:01;6.10;;;2.07;;
3274;SDS011;1649;53.672;10.064;2023-09-19T15:28:31;11.37;;;2.20;;
3274;SDS011;1649;53.672;10.064;2023-09-19T15:31:05;8.43;;;2.83;;
3274;SDS011;1649;53.672;10.064;2023-09-19T15:33:35;5.93;;;2.73;;
3274;SDS011;1649;53.672;10.064;2023-09-19T15:36:05;6.03;;;2.00;;
3274;SDS011;1649;53.672;10.064;2023-09-19T15:38:54;6.70;;;2.00;;
3274;SDS011;1649;53.672;10.064;2023-09-19T15:41:37;6.77;;;2.20;;
3274;SDS011;1649;53.672;10.064;2023-09-19T15:44:03;8.27;;;2.33;;
3274;SDS011;1649;53.672;10.064;2023-09-19T15:46:30;7.37;;;2.40;;
3274;SDS011;1649;53.672;10.064;2023-09-19T15:48:59;9.37;;;2.17;;
3274;SDS011;1649;53.672;10.064;2023-09-19T15:51:25;6.97;;;2.50;;
3274;SDS011;1649;53.672;10.064;2023-09-19T15:53:52;8.07;;;3.10;;